Time;durP1;ratioP1;P1;durP2;ratioP2;P2;SDS_P1;SDS_P2;PMS_P1;PMS_P2;Temp;Humidity;BMP_temperature;BMP_pressure;BME280_temperature;BME280_humidity;BME280_pressure;Samples;Min_cycle;Max_cycle;Signal;HPM_P1;HPM_P2
2021/08/13 00:00:11;;;;;;;16.67;14.83;;;21.60;98.30;;;;;;5069776;23;20529;-81
2021/08/13 00:02:16;;;;;;;16.73;15.07;;;21.60;98.30;;;;;;5069447;23;20482;-81
2021/08/13 00:04:19;;;;;;;16.07;13.70;;;21.80;98.30;;;;;;5076938;23;20447;-81
2021/08/13 00:06:22;;;;;;;14.90;13.40;;;21.90;98.30;;;;;;5069622;23;20748;-82
2021/08/13 00:08:25;;;;;;;16.33;13.80;;;21.90;98.30;;;;;;5075100;23;20479;-81
2021/08/13 00:10:32;;;;;;;16.33;14.57;;;21.80;98.30;;;;;;5078298;23;20487;-81
2021/08/13 00:12:35;;;;;;;17.20;15.03;;;21.70;98.30;;;;;;5076123;23;20483;-81
2021/08/13 00:14:38;;;;;;;15.50;13.70;;;21.80;98.30;;;;;;5072457;23;20454;-82
2021/08/13 00:16:42;;;;;;;14.93;13.60;;;21.70;98.30;;;;;;5073077;23;20871;-81
2021/08/13 00:18:45;;;;;;;17.80;15.70;;;21.70;98.30;;;;;;5075377;23;20477;-81
2021/08/13 00:20:48;;;;;;;15.73;13.63;;;21.70;98.30;;;;;;5077996;23;20515;-81
2021/08/13 00:22:52;;;;;;;16.67;15.07;;;21.80;98.30;;;;;;5084168;23;20973;-81
2021/08/13 00:24:55;;;;;;;16.03;14.33;;;21.70;98.30;;;;;;5070853;23;20467;-81
2021/08/13 00:26:58;;;;;;;16.13;14.63;;;21.60;98.30;;;;;;5070269;23;20432;-81
2021/08/13 00:29:01;;;;;;;17.13;14.97;;;21.60;98.30;;;;;;5069455;23;20844;-81
2021/08/13 00:31:04;;;;;;;16.90;15.30;;;21.70;98.30;;;;;;5077225;23;20420;-81
2021/08/13 00:33:13;;;;;;;16.50;14.30;;;21.60;98.30;;;;;;5068971;23;20523;-81
2021/08/13 00:35:16;;;;;;;16.93;13.30;;;21.50;98.30;;;;;;5077602;23;20506;-81
2021/08/13 00:37:18;;;;;;;16.73;14.30;;;21.40;98.30;;;;;;5069196;23;20428;-81
2021/08/13 00:39:21;;;;;;;17.00;13.97;;;21.40;98.30;;;;;;5069479;23;20872;-81
2021/08/13 00:41:24;;;;;;;15.50;14.00;;;21.50;98.30;;;;;;5070275;23;20514;-81
2021/08/13 00:43:27;;;;;;;14.73;13.20;;;21.50;98.30;;;;;;5068500;23;20902;-81
2021/08/13 00:45:30;;;;;;;13.80;11.97;;;21.50;98.30;;;;;;5070124;23;20431;-81
2021/08/13 00:47:33;;;;;;;14.80;13.23;;;21.50;98.30;;;;;;5070863;23;20542;-81
2021/08/13 00:49:38;;;;;;;14.63;13.23;;;21.50;98.30;;;;;;5071871;23;20544;-82
2021/08/13 00:51:41;;;;;;;15.43;14.00;;;21.50;98.30;;;;;;5070546;23;20470;-82
2021/08/13 00:53:44;;;;;;;18.60;16.70;;;21.40;98.30;;;;;;5069451;23;20531;-81
2021/08/13 00:55:50;;;;;;;16.83;15.23;;;21.40;98.30;;;;;;5070158;23;20432;-81
2021/08/13 00:57:54;;;;;;;15.70;13.90;;;21.40;98.30;;;;;;5070600;23;20454;-81
2021/08/13 00:59:57;;;;;;;16.20;14.70;;;21.40;98.30;;;;;;5069703;23;21002;-80
2021/08/13 01:02:01;;;;;;;17.30;15.50;;;21.50;98.30;;;;;;5070783;23;20431;-81
2021/08/13 01:04:04;;;;;;;15.67;14.17;;;21.50;98.30;;;;;;5068989;23;20496;-81
2021/08/13 01:06:10;;;;;;;17.17;14.70;;;21.60;98.30;;;;;;5070269;23;20518;-82
2021/08/13 01:08:13;;;;;;;17.90;15.40;;;21.60;98.30;;;;;;5077831;23;20451;-81
2021/08/13 01:10:17;;;;;;;17.50;15.67;;;21.40;98.30;;;;;;5069353;23;20459;-81
2021/08/13 01:12:29;;;;;;;16.63;14.90;;;21.30;98.30;;;;;;5070613;23;20437;-80
2021/08/13 01:14:43;;;;;;;17.03;15.23;;;21.10;98.30;;;;;;5070329;23;20499;-81
2021/08/13 01:16:50;;;;;;;16.20;14.60;;;21.00;98.30;;;;;;5078543;23;20436;-81
2021/08/13 01:18:59;;;;;;;16.60;14.90;;;20.90;98.30;;;;;;5077927;23;20451;-81
2021/08/13 01:21:28;;;;;;;15.43;13.83;;;20.90;98.30;;;;;;5070488;23;20416;-81
2021/08/13 01:23:37;;;;;;;16.10;13.70;;;21.00;98.30;;;;;;5069963;23;20446;-81
2021/08/13 01:25:44;;;;;;;13.63;12.23;;;21.10;98.30;;;;;;5070192;23;20416;-81
2021/08/13 01:27:49;;;;;;;14.37;12.93;;;21.10;98.30;;;;;;5070500;23;20507;-80
2021/08/13 01:29:56;;;;;;;14.03;12.53;;;21.20;98.30;;;;;;5069554;23;20947;-81
2021/08/13 01:32:32;;;;;;;14.87;13.33;;;21.20;98.30;;;;;;5069994;23;20471;-81
2021/08/13 01:34:37;;;;;;;15.40;13.50;;;21.20;98.30;;;;;;5077329;23;20419;-81
2021/08/13 01:36:42;;;;;;;14.20;12.90;;;21.10;98.30;;;;;;5069988;23;20458;-80
2021/08/13 01:38:45;;;;;;;15.77;14.17;;;21.00;98.30;;;;;;5077473;23;20448;-80
2021/08/13 01:40:49;;;;;;;16.00;13.60;;;21.00;98.30;;;;;;5070254;23;20439;-80
2021/08/13 01:42:54;;;;;;;17.40;14.80;;;21.00;98.30;;;;;;5070421;23;20775;-80
2021/08/13 01:44:58;;;;;;;16.57;14.83;;;20.90;98.30;;;;;;5069933;23;20428;-80
2021/08/13 01:47:02;;;;;;;16.97;15.37;;;20.90;98.30;;;;;;5069560;23;20432;-81
2021/08/13 01:49:07;;;;;;;15.67;14.13;;;21.00;98.30;;;;;;5069710;23;20456;-81
2021/08/13 01:51:14;;;;;;;15.50;14.00;;;21.00;98.30;;;;;;5069113;23;20432;-81
2021/08/13 01:53:18;;;;;;;17.50;14.00;;;21.00;98.30;;;;;;5077792;23;20436;-81
2021/08/13 01:55:21;;;;;;;17.20;14.90;;;20.90;98.30;;;;;;5069344;23;20440;-80
2021/08/13 01:57:26;;;;;;;15.33;13.73;;;20.80;98.30;;;;;;5075738;23;20482;-81
2021/08/13 01:59:29;;;;;;;17.77;15.97;;;20.70;98.30;;;;;;5076824;23;20451;-80
2021/08/13 02:01:36;;;;;;;18.53;15.60;;;20.70;98.30;;;;;;5068586;23;20430;-81
2021/08/13 02:03:41;;;;;;;17.40;14.60;;;20.50;98.30;;;;;;5067774;23;20434;-81
2021/08/13 02:05:49;;;;;;;22.83;14.73;;;20.30;98.30;;;;;;5076642;23;20435;-81
2021/08/13 02:07:52;;;;;;;17.13;15.43;;;20.30;98.30;;;;;;5067536;23;20538;-81
2021/08/13 02:09:56;;;;;;;15.77;14.17;;;20.30;98.30;;;;;;5068693;23;20436;-81
2021/08/13 02:11:59;;;;;;;16.60;15.00;;;20.30;98.30;;;;;;5069187;23;20527;-81
2021/08/13 02:14:02;;;;;;;16.00;14.50;;;20.20;98.30;;;;;;5068985;23;20483;-81
2021/08/13 02:16:09;;;;;;;16.83;15.20;;;20.10;98.30;;;;;;5069235;23;20511;-81
2021/08/13 02:18:17;;;;;;;17.30;15.30;;;20.10;98.30;;;;;;5068978;23;20478;-81
2021/08/13 02:20:22;;;;;;;16.90;15.23;;;20.00;98.30;;;;;;5069623;23;20420;-80
2021/08/13 02:22:26;;;;;;;17.03;15.43;;;20.00;98.30;;;;;;5076452;23;21196;-81
2021/08/13 02:24:29;;;;;;;18.03;15.80;;;20.00;98.30;;;;;;5075038;23;20423;-81
2021/08/13 02:26:32;;;;;;;16.27;14.77;;;20.10;98.30;;;;;;5067143;23;20500;-81
2021/08/13 02:28:36;;;;;;;16.60;15.00;;;20.10;98.30;;;;;;5074977;23;20446;-81
2021/08/13 08:58:32;;;;;;;12.23;11.13;;;24.80;98.30;;;;;;5137579;22;20838;-82
2021/08/13 09:03:36;;;;;;;13.70;12.40;;;25.10;98.30;;;;;;5145829;23;20507;-83
2021/08/13 09:06:05;;;;;;;12.93;11.60;;;25.10;98.30;;;;;;5139280;23;20431;-83
2021/08/13 09:08:24;;;;;;;13.00;11.70;;;25.00;98.30;;;;;;5122788;23;20422;-83
2021/08/13 09:10:45;;;;;;;12.13;10.53;;;25.10;98.30;;;;;;5148335;23;20421;-83
2021/08/13 09:16:24;;;;;;;11.80;10.70;;;25.10;98.30;;;;;;5136056;23;20424;-83
